Time;durP1;ratioP1;P1;durP2;ratioP2;P2;SDS_P1;SDS_P2;PMS_P1;PMS_P2;Temp;Humidity;BMP_temperature;BMP_pressure;BME280_temperature;BME280_humidity;BME280_pressure;Samples;Min_cycle;Max_cycle;Signal;HPM_P1;HPM_P2
2022/08/22 00:01:43;;;;;;;1.73;1.58;;;;;;;;;;7391789;19;20066;-77
2022/08/22 00:04:43;;;;;;;1.90;1.42;;;;;;;;;;7389516;19;20002;-78
2022/08/22 00:07:28;;;;;;;4.28;1.67;;;;;;;;;;7389590;19;20009;-77
2022/08/22 00:10:02;;;;;;;1.33;1.10;;;;;;;;;;7390399;19;20010;-78
2022/08/22 00:12:42;;;;;;;1.38;1.20;;;;;;;;;;7390780;19;20193;-76
2022/08/22 00:15:49;;;;;;;1.92;1.10;;;;;;;;;;7391812;19;20018;-77
2022/08/22 00:18:34;;;;;;;3.25;1.33;;;;;;;;;;7383493;19;20028;-76
2022/08/22 00:21:09;;;;;;;1.42;1.33;;;;;;;;;;7387163;19;20009;-77
2022/08/22 00:23:42;;;;;;;1.10;1.00;;;;;;;;;;7386600;19;20003;-77
2022/08/22 00:26:15;;;;;;;1.60;1.50;;;;;;;;;;7388099;19;20019;-77
2022/08/22 00:28:45;;;;;;;1.50;1.40;;;;;;;;;;7389063;19;20019;-76
2022/08/22 00:31:32;;;;;;;1.95;1.40;;;;;;;;;;7392414;19;20023;-76
2022/08/22 00:34:01;;;;;;;2.63;1.50;;;;;;;;;;7391185;19;20022;-78
2022/08/22 00:36:55;;;;;;;2.45;1.70;;;;;;;;;;7385344;19;20018;-77
2022/08/22 00:39:33;;;;;;;2.80;1.40;;;;;;;;;;7388284;19;20533;-76
2022/08/22 00:42:28;;;;;;;4.10;1.55;;;;;;;;;;7388525;19;20411;-76
2022/08/22 00:44:56;;;;;;;1.75;1.40;;;;;;;;;;7389602;19;20015;-78
2022/08/22 00:47:48;;;;;;;1.70;1.60;;;;;;;;;;7391244;19;20283;-77
2022/08/22 00:50:45;;;;;;;2.67;1.45;;;;;;;;;;7390276;19;20053;-77
2022/08/22 00:53:42;;;;;;;1.77;1.55;;;;;;;;;;7391917;19;20502;-77
2022/08/22 00:56:26;;;;;;;2.38;1.70;;;;;;;;;;7386120;19;20374;-76
2022/08/22 00:59:10;;;;;;;3.55;1.95;;;;;;;;;;7390127;19;20006;-76
2022/08/22 01:01:53;;;;;;;2.95;1.60;;;;;;;;;;7389588;19;20010;-77
2022/08/22 01:04:40;;;;;;;2.92;1.80;;;;;;;;;;7391102;19;20010;-77
2022/08/22 01:07:26;;;;;;;1.60;1.50;;;;;;;;;;7388039;19;20011;-77
2022/08/22 01:10:22;;;;;;;2.50;1.88;;;;;;;;;;7389221;19;20066;-76
2022/08/22 01:13:22;;;;;;;4.18;1.67;;;;;;;;;;7388227;19;20002;-76
2022/08/22 01:15:52;;;;;;;1.42;1.33;;;;;;;;;;7388626;19;20019;-77
2022/08/22 01:18:49;;;;;;;2.83;1.70;;;;;;;;;;7388452;19;20014;-77
2022/08/22 01:21:35;;;;;;;2.25;1.90;;;;;;;;;;7388837;19;20023;-76
2022/08/22 01:25:16;;;;;;;6.18;1.95;;;;;;;;;;7391260;19;20103;-76
2022/08/22 01:27:52;;;;;;;3.08;1.70;;;;;;;;;;7387249;19;20071;-76
2022/08/22 01:30:49;;;;;;;1.38;1.02;;;;;;;;;;7386751;19;20373;-76
2022/08/22 01:33:17;;;;;;;;;;;;;;;;;;7392116;19;20018;-76
2022/08/22 01:35:55;;;;;;;1.40;1.10;;;;;;;;;;7385304;19;19935;-77
2022/08/22 01:38:45;;;;;;;2.72;1.60;;;;;;;;;;7389110;19;20462;-76
2022/08/22 01:41:48;;;;;;;2.20;2.00;;;;;;;;;;7393234;19;19998;-77
2022/08/22 01:44:42;;;;;;;3.38;1.80;;;;;;;;;;7392383;19;20202;-76
2022/08/22 01:47:15;;;;;;;1.90;1.60;;;;;;;;;;7393089;19;20015;-76
2022/08/22 01:50:13;;;;;;;3.55;1.77;;;;;;;;;;7394841;19;20099;-77
2022/08/22 01:52:49;;;;;;;2.70;1.90;;;;;;;;;;7392534;19;20330;-76
2022/08/22 01:55:29;;;;;;;1.98;1.70;;;;;;;;;;7395328;19;20014;-76
2022/08/22 01:58:02;;;;;;;1.80;1.58;;;;;;;;;;7391508;19;20014;-75
2022/08/22 02:00:49;;;;;;;2.72;1.90;;;;;;;;;;7396899;19;20018;-76
2022/08/22 02:03:31;;;;;;;2.50;1.88;;;;;;;;;;7386609;19;20030;-76
2022/08/22 02:06:21;;;;;;;5.35;2.13;;;;;;;;;;7393819;19;20546;-76
2022/08/22 02:08:59;;;;;;;2.50;1.60;;;;;;;;;;7394075;19;20073;-75
2022/08/22 02:12:01;;;;;;;2.00;1.80;;;;;;;;;;7394013;19;20706;-75
2022/08/22 02:14:39;;;;;;;2.05;1.67;;;;;;;;;;7390302;19;20002;-76
2022/08/22 02:17:24;;;;;;;2.25;1.33;;;;;;;;;;7393748;19;20351;-76
2022/08/22 02:20:17;;;;;;;2.38;1.55;;;;;;;;;;7393750;19;20010;-77
2022/08/22 02:22:55;;;;;;;2.97;1.65;;;;;;;;;;7392120;19;20002;-76
2022/08/22 02:25:24;;;;;;;1.67;1.40;;;;;;;;;;7392201;19;20425;-77
2022/08/22 02:28:07;;;;;;;3.00;1.75;;;;;;;;;;7394107;19;20014;-76
2022/08/22 02:30:46;;;;;;;1.92;1.50;;;;;;;;;;7393644;19;20360;-76
2022/08/22 02:33:24;;;;;;;2.25;1.50;;;;;;;;;;7394260;19;20011;-75
2022/08/22 02:36:03;;;;;;;1.40;1.30;;;;;;;;;;7392237;19;20014;-75
2022/08/22 02:38:37;;;;;;;3.33;1.90;;;;;;;;;;7392642;19;20014;-76
2022/08/22 02:41:15;;;;;;;2.27;1.60;;;;;;;;;;7395004;19;20738;-76
2022/08/22 02:43:58;;;;;;;3.15;1.85;;;;;;;;;;7394252;19;20282;-75
2022/08/22 02:46:48;;;;;;;1.83;1.42;;;;;;;;;;7390240;19;20087;-76
2022/08/22 02:49:42;;;;;;;2.85;1.65;;;;;;;;;;7392935;19;20031;-76
2022/08/22 02:52:15;;;;;;;2.60;1.70;;;;;;;;;;7389230;19;20021;-75
2022/08/22 02:54:50;;;;;;;2.40;1.70;;;;;;;;;;7392341;19;20003;-77
2022/08/22 02:57:18;;;;;;;;;;;;;;;;;;7395558;19;20346;-76
2022/08/22 03:00:14;;;;;;;2.15;1.88;;;;;;;;;;7390916;19;20144;-75
2022/08/22 03:02:56;;;;;;;2.47;1.65;;;;;;;;;;7391494;19;20446;-76
2022/08/22 03:05:22;;;;;;;2.20;1.90;;;;;;;;;;7393212;19;20014;-77
2022/08/22 03:08:00;;;;;;;5.43;1.60;;;;;;;;;;7391007;19;21351;-77
2022/08/22 03:10:33;;;;;;;2.55;1.70;;;;;;;;;;7392500;19;20007;-76
2022/08/22 03:13:32;;;;;;;3.22;1.60;;;;;;;;;;7394609;19;20438;-76
2022/08/22 03:16:05;;;;;;;3.13;1.58;;;;;;;;;;7392827;19;20013;-77
2022/08/22 03:18:47;;;;;;;4.25;1.95;;;;;;;;;;7392780;19;20044;-77
2022/08/22 03:21:34;;;;;;;2.92;1.52;;;;;;;;;;7388121;19;20014;-77
2022/08/22 03:24:17;;;;;;;2.78;1.58;;;;;;;;;;7391590;19;20154;-76
2022/08/22 03:26:55;;;;;;;2.67;1.80;;;;;;;;;;7390609;19;20006;-75
2022/08/22 03:29:30;;;;;;;2.63;1.88;;;;;;;;;;7392320;19;19998;-75
2022/08/22 03:32:11;;;;;;;4.03;1.70;;;;;;;;;;7392634;19;20021;-75
2022/08/22 03:34:52;;;;;;;3.22;1.48;;;;;;;;;;7393371;19;20003;-75
2022/08/22 03:37:23;;;;;;;2.90;1.55;;;;;;;;;;7390717;19;20003;-75
2022/08/22 03:39:49;;;;;;;2.53;1.40;;;;;;;;;;7393278;19;20014;-75
2022/08/22 03:42:21;;;;;;;4.10;1.73;;;;;;;;;;7391262;19;20003;-75
2022/08/22 03:44:58;;;;;;;2.35;1.45;;;;;;;;;;7391787;19;20012;-75
2022/08/22 03:48:02;;;;;;;1.73;1.20;;;;;;;;;;7392212;19;20021;-75
2022/08/22 03:50:48;;;;;;;3.00;1.20;;;;;;;;;;7391326;19;20010;-74
2022/08/22 03:53:41;;;;;;;2.13;1.48;;;;;;;;;;7392832;19;20003;-75
2022/08/22 03:56:41;;;;;;;1.45;1.33;;;;;;;;;;7390215;19;19995;-75
2022/08/22 03:59:41;;;;;;;2.95;1.50;;;;;;;;;;7391704;19;20002;-75
2022/08/22 04:02:32;;;;;;;1.63;1.27;;;;;;;;;;7387997;19;19995;-78
2022/08/22 04:05:35;;;;;;;2.65;1.92;;;;;;;;;;7388163;19;20931;-79
2022/08/22 04:08:38;;;;;;;4.93;2.55;;;;;;;;;;7391474;19;20073;-77
2022/08/22 04:11:15;;;;;;;2.28;1.50;;;;;;;;;;7388604;19;20014;-77
2022/08/22 04:14:05;;;;;;;1.98;1.45;;;;;;;;;;7391165;19;20018;-77
2022/08/22 04:16:55;;;;;;;1.88;1.33;;;;;;;;;;7388044;19;20061;-76
2022/08/22 04:19:54;;;;;;;2.58;1.55;;;;;;;;;;7391169;19;20476;-77
2022/08/22 04:22:47;;;;;;;3.42;2.00;;;;;;;;;;7387688;19;19999;-76
2022/08/22 04:25:22;;;;;;;4.35;2.08;;;;;;;;;;7385530;19;20014;-77
2022/08/22 04:28:14;;;;;;;1.88;1.65;;;;;;;;;;7390302;19;20006;-76
2022/08/22 04:30:59;;;;;;;1.70;1.50;;;;;;;;;;7390038;19;20358;-76
2022/08/22 04:33:33;;;;;;;1.65;1.38;;;;;;;;;;7391161;19;20010;-77
2022/08/22 04:36:34;;;;;;;1.65;1.50;;;;;;;;;;7390628;19;20070;-76
2022/08/22 04:39:18;;;;;;;2.25;1.67;;;;;;;;;;7387652;19;20352;-77
2022/08/22 04:42:10;;;;;;;2.03;1.80;;;;;;;;;;7391792;19;20007;-77
2022/08/22 04:44:51;;;;;;;1.45;1.33;;;;;;;;;;7388981;19;20002;-76
2022/08/22 04:47:44;;;;;;;2.40;1.50;;;;;;;;;;7392459;19;20010;-77
2022/08/22 04:50:29;;;;;;;4.68;1.33;;;;;;;;;;7385340;19;20023;-77
2022/08/22 04:52:55;;;;;;;2.60;1.52;;;;;;;;;;7391050;19;20014;-76
2022/08/22 04:55:32;;;;;;;3.90;1.80;;;;;;;;;;7388285;19;20031;-76
2022/08/22 04:58:18;;;;;;;2.38;1.30;;;;;;;;;;7392205;19;20003;-77
2022/08/22 05:01:08;;;;;;;2.55;1.60;;;;;;;;;;7387604;19;20035;-77
2022/08/22 05:03:38;;;;;;;1.73;1.48;;;;;;;;;;7389679;19;20002;-76
2022/08/22 05:06:05;;;;;;;2.55;1.60;;;;;;;;;;7384733;19;20014;-76
2022/08/22 05:08:35;;;;;;;2.15;1.40;;;;;;;;;;7388732;19;20027;-76
2022/08/22 05:11:06;;;;;;;3.67;1.90;;;;;;;;;;7391708;19;20003;-77
2022/08/22 05:13:40;;;;;;;3.92;1.52;;;;;;;;;;7389452;19;20013;-77
2022/08/22 05:16:13;;;;;;;3.92;1.63;;;;;;;;;;7392626;19;20003;-77
2022/08/22 05:18:53;;;;;;;1.90;1.58;;;;;;;;;;7394546;19;20589;-78
2022/08/22 05:21:24;;;;;;;1.70;1.50;;;;;;;;;;7390156;19;20049;-77
2022/08/22 05:23:58;;;;;;;7.32;2.20;;;;;;;;;;7390153;19;20006;-77
2022/08/22 05:26:26;;;;;;;5.78;2.08;;;;;;;;;;7394797;19;20015;-77
2022/08/22 05:28:58;;;;;;;2.28;1.65;;;;;;;;;;7394797;19;20107;-77
2022/08/22 05:31:36;;;;;;;2.83;2.00;;;;;;;;;;7394847;19;20039;-77
2022/08/22 05:34:06;;;;;;;2.47;1.98;;;;;;;;;;7392263;19;20006;-78
2022/08/22 05:36:45;;;;;;;2.35;1.77;;;;;;;;;;7387395;19;20278;-78
2022/08/22 05:39:17;;;;;;;2.92;1.95;;;;;;;;;;7393570;19;20011;-78
2022/08/22 05:41:43;;;;;;;1.92;1.65;;;;;;;;;;7394280;19;19998;-78
2022/08/22 05:44:25;;;;;;;2.53;2.10;;;;;;;;;;7389829;19;20032;-78
2022/08/22 05:47:04;;;;;;;3.38;2.30;;;;;;;;;;7390250;19;20562;-79
2022/08/22 05:49:47;;;;;;;1.90;1.70;;;;;;;;;;7393715;19;20013;-78
2022/08/22 05:52:40;;;;;;;2.75;1.63;;;;;;;;;;7393335;19;20473;-77
2022/08/22 05:55:21;;;;;;;1.63;1.48;;;;;;;;;;7393909;19;20010;-79
2022/08/22 05:57:52;;;;;;;4.00;2.40;;;;;;;;;;7394281;19;20011;-78
2022/08/22 06:00:21;;;;;;;2.75;2.33;;;;;;;;;;7393445;19;20006;-78
2022/08/22 06:02:47;;;;;;;3.65;1.85;;;;;;;;;;7396967;19;20137;-79
2022/08/22 06:05:19;;;;;;;4.85;2.30;;;;;;;;;;7396983;19;20022;-79
2022/08/22 06:07:49;;;;;;;4.35;2.80;;;;;;;;;;7396895;19;20011;-78
2022/08/22 06:10:25;;;;;;;4.53;2.92;;;;;;;;;;7398794;19;20014;-79
2022/08/22 06:16:17;;;;;;;12.95;3.75;;;;;;;;;;7429434;19;20325;-77
2022/08/22 06:18:44;;;;;;;4.50;2.47;;;;;;;;;;7428346;19;20470;-77
2022/08/22 06:21:17;;;;;;;8.70;3.95;;;;;;;;;;7428133;19;20006;-78
2022/08/22 06:23:49;;;;;;;4.25;3.28;;;;;;;;;;7429613;19;20003;-78
2022/08/22 06:26:17;;;;;;;3.15;2.72;;;;;;;;;;7426715;19;20478;-77
2022/08/22 06:28:46;;;;;;;5.22;3.60;;;;;;;;;;7427216;19;20031;-76
2022/08/22 06:31:20;;;;;;;4.05;3.05;;;;;;;;;;7421974;19;20006;-76
2022/08/22 06:33:54;;;;;;;4.20;3.38;;;;;;;;;;7420481;19;20033;-76
2022/08/22 06:36:31;;;;;;;4.03;2.90;;;;;;;;;;7420797;19;20471;-76
2022/08/22 06:39:02;;;;;;;6.00;3.30;;;;;;;;;;7423846;19;20849;-77
2022/08/22 06:41:31;;;;;;;3.85;2.97;;;;;;;;;;7421354;19;20006;-77
2022/08/22 06:43:58;;;;;;;3.42;2.53;;;;;;;;;;7426140;19;20021;-78
2022/08/22 06:46:27;;;;;;;3.80;3.03;;;;;;;;;;7420461;19;20053;-78
2022/08/22 06:48:55;;;;;;;4.53;3.05;;;;;;;;;;7424680;19;20442;-79
2022/08/22 06:51:23;;;;;;;5.75;3.80;;;;;;;;;;7423535;19;20029;-77
2022/08/22 06:53:53;;;;;;;6.78;3.50;;;;;;;;;;7422709;19;20018;-77
2022/08/22 06:56:22;;;;;;;5.93;3.22;;;;;;;;;;7420478;19;20002;-77
2022/08/22 06:58:51;;;;;;;3.53;3.03;;;;;;;;;;7424581;19;20073;-77
2022/08/22 07:01:26;;;;;;;3.95;3.25;;;;;;;;;;7423064;19;20010;-78
2022/08/22 07:03:54;;;;;;;5.50;2.97;;;;;;;;;;7425198;19;20006;-78
2022/08/22 07:06:29;;;;;;;3.40;2.28;;;;;;;;;;7418585;19;20591;-78
2022/08/22 07:08:55;;;;;;;5.75;3.72;;;;;;;;;;7423349;19;20080;-79
2022/08/22 07:11:38;;;;;;;2.63;2.28;;;;;;;;;;7419374;19;20006;-78
2022/08/22 07:14:12;;;;;;;6.55;2.65;;;;;;;;;;7423011;19;20099;-78
2022/08/22 07:16:40;;;;;;;5.28;3.50;;;;;;;;;;7422208;19;20490;-78
2022/08/22 07:19:05;;;;;;;6.95;3.40;;;;;;;;;;7422691;19;20006;-78
2022/08/22 07:21:45;;;;;;;3.63;2.25;;;;;;;;;;7424114;19;20024;-78
2022/08/22 07:24:16;;;;;;;3.35;2.53;;;;;;;;;;7423359;19;20414;-78
2022/08/22 07:27:01;;;;;;;2.90;2.20;;;;;;;;;;7394002;19;20336;-78
2022/08/22 07:29:51;;;;;;;4.93;2.45;;;;;;;;;;7389850;19;20010;-79
2022/08/22 07:32:23;;;;;;;2.20;1.88;;;;;;;;;;7389649;19;20358;-79
2022/08/22 07:35:01;;;;;;;2.53;1.95;;;;;;;;;;7389588;19;20112;-78
2022/08/22 07:37:52;;;;;;;2.55;2.13;;;;;;;;;;7390836;19;20093;-78
2022/08/22 07:41:04;;;;;;;4.05;2.10;;;;;;;;;;7397356;19;19998;-78
2022/08/22 07:43:51;;;;;;;3.30;1.90;;;;;;;;;;7385922;19;20019;-78
2022/08/22 07:46:30;;;;;;;3.22;2.30;;;;;;;;;;7391592;19;20026;-78
2022/08/22 07:49:24;;;;;;;4.47;1.73;;;;;;;;;;7389555;19;20411;-79
2022/08/22 07:51:57;;;;;;;3.90;1.80;;;;;;;;;;7389653;19;20027;-77
2022/08/22 07:54:33;;;;;;;2.67;1.80;;;;;;;;;;7388253;19;20011;-78
2022/08/22 07:57:06;;;;;;;4.65;1.88;;;;;;;;;;7393865;19;20126;-78
2022/08/22 07:59:49;;;;;;;2.65;1.63;;;;;;;;;;7395035;19;20002;-78
2022/08/22 08:02:22;;;;;;;3.38;1.42;;;;;;;;;;7396295;19;20035;-78
2022/08/22 08:04:55;;;;;;;2.67;1.30;;;;;;;;;;7396844;19;20038;-78
2022/08/22 08:07:31;;;;;;;2.55;1.30;;;;;;;;;;7395288;19;20022;-78
2022/08/22 08:10:45;;;;;;;5.20;1.58;;;;;;;;;;7392194;19;20438;-78
2022/08/22 08:13:38;;;;;;;3.00;1.20;;;;;;;;;;7393635;19;20019;-78
2022/08/22 08:16:08;;;;;;;2.05;1.20;;;;;;;;;;7393164;19;20039;-78
2022/08/22 08:18:38;;;;;;;2.35;0.82;;;;;;;;;;7394047;19;20088;-78
2022/08/22 08:21:58;;;;;;;;;;;;;;;;;;;;;
2022/08/22 08:25:11;;;;;;;3.38;1.25;;;;;;;;;;7395249;19;20017;-78
2022/08/22 08:31:15;;;;;;;3.53;1.20;;;;;;;;;;7396415;19;20015;-79
2022/08/22 08:34:11;;;;;;;7.97;1.35;;;;;;;;;;7392511;19;20028;-78
2022/08/22 08:37:33;;;;;;;;;;;;;;;;;;;;;
2022/08/22 08:40:22;;;;;;;1.95;1.00;;;;;;;;;;7396126;19;20405;-78
2022/08/22 08:43:33;;;;;;;3.50;0.80;;;;;;;;;;7394440;19;20010;-77
2022/08/22 08:46:13;;;;;;;2.38;0.85;;;;;;;;;;7392333;19;20048;-78
2022/08/22 08:49:15;;;;;;;2.08;0.75;;;;;;;;;;7392044;19;20011;-77
2022/08/22 08:52:10;;;;;;;1.08;0.70;;;;;;;;;;7387470;19;20014;-78
2022/08/22 08:54:44;;;;;;;1.85;1.00;;;;;;;;;;7393478;19;20030;-78
2022/08/22 08:57:28;;;;;;;2.65;0.90;;;;;;;;;;7391526;19;20010;-77
2022/08/22 09:00:31;;;;;;;1.65;0.85;;;;;;;;;;7392856;19;20013;-77
2022/08/22 09:03:09;;;;;;;2.03;0.60;;;;;;;;;;7391223;19;20030;-77
2022/08/22 09:05:44;;;;;;;2.15;1.08;;;;;;;;;;7391581;19;20006;-77
2022/08/22 09:08:34;;;;;;;2.53;0.82;;;;;;;;;;7393691;19;20488;-77
2022/08/22 09:11:27;;;;;;;2.33;0.73;;;;;;;;;;7392106;19;20021;-78
2022/08/22 09:14:18;;;;;;;1.77;0.82;;;;;;;;;;7394754;19;20010;-77
2022/08/22 09:17:11;;;;;;;1.73;0.80;;;;;;;;;;7391643;19;20350;-78
2022/08/22 09:20:33;;;;;;;4.13;2.25;;;;;;;;;;7392458;19;20030;-78
2022/08/22 09:23:39;;;;;;;1.00;0.88;;;;;;;;;;7390224;19;20027;-78
2022/08/22 09:26:39;;;;;;;0.80;0.70;;;;;;;;;;7384217;19;20033;-78
2022/08/22 09:29:48;;;;;;;2.17;0.70;;;;;;;;;;7391063;19;20371;-79
2022/08/22 09:32:27;;;;;;;3.58;0.63;;;;;;;;;;7390908;19;20011;-78
2022/08/22 09:35:01;;;;;;;1.63;0.70;;;;;;;;;;7388176;19;20014;-77
2022/08/22 09:37:47;;;;;;;0.95;0.43;;;;;;;;;;7389246;19;20458;-78
2022/08/22 09:40:16;;;;;;;0.90;0.50;;;;;;;;;;7391577;19;20127;-78
2022/08/22 09:43:08;;;;;;;1.38;0.65;;;;;;;;;;7390501;19;20010;-77
2022/08/22 09:46:03;;;;;;;2.55;0.68;;;;;;;;;;7390417;19;20003;-77
2022/08/22 09:49:00;;;;;;;1.58;0.80;;;;;;;;;;7389032;19;20002;-77
2022/08/22 09:51:40;;;;;;;1.35;0.60;;;;;;;;;;7390106;19;20025;-77
2022/08/22 09:54:32;;;;;;;1.83;0.70;;;;;;;;;;7391520;19;20018;-77
2022/08/22 09:57:00;;;;;;;1.00;0.45;;;;;;;;;;7391599;19;20006;-75
2022/08/22 09:59:41;;;;;;;1.85;0.55;;;;;;;;;;7392520;19;20002;-74
2022/08/22 10:02:22;;;;;;;1.23;0.98;;;;;;;;;;7391502;19;20035;-75
2022/08/22 10:05:09;;;;;;;1.58;0.82;;;;;;;;;;7392841;19;20020;-74
2022/08/22 10:08:12;;;;;;;0.75;0.70;;;;;;;;;;7390398;19;20007;-75
2022/08/22 10:10:49;;;;;;;2.83;0.90;;;;;;;;;;7386027;19;20119;-74
2022/08/22 10:13:39;;;;;;;0.43;0.43;;;;;;;;;;7390996;19;20474;-74
2022/08/22 10:16:41;;;;;;;2.40;0.95;;;;;;;;;;7391526;19;20014;-75
2022/08/22 10:19:15;;;;;;;1.20;0.90;;;;;;;;;;7389673;19;20010;-75
2022/08/22 10:22:14;;;;;;;1.85;0.68;;;;;;;;;;7394134;19;20010;-78
2022/08/22 10:25:14;;;;;;;1.88;0.75;;;;;;;;;;7388737;19;20027;-78
2022/08/22 10:28:07;;;;;;;1.73;0.95;;;;;;;;;;7389530;19;20006;-76
2022/08/22 10:30:43;;;;;;;3.05;0.88;;;;;;;;;;7392315;19;20009;-76
2022/08/22 10:33:26;;;;;;;1.63;0.75;;;;;;;;;;7388045;19;20010;-76
2022/08/22 10:36:29;;;;;;;4.70;1.00;;;;;;;;;;7388944;19;20010;-77
2022/08/22 10:38:58;;;;;;;4.50;0.95;;;;;;;;;;7393035;19;20434;-76
2022/08/22 10:41:35;;;;;;;1.38;0.80;;;;;;;;;;7391840;19;20006;-77
2022/08/22 10:44:20;;;;;;;2.70;0.85;;;;;;;;;;7392138;19;20342;-77
2022/08/22 10:46:48;;;;;;;1.45;0.90;;;;;;;;;;7389702;19;20010;-77
2022/08/22 10:49:31;;;;;;;1.35;0.80;;;;;;;;;;7389008;19;20467;-76
2022/08/22 10:52:13;;;;;;;1.42;0.90;;;;;;;;;;7388564;19;20023;-77
2022/08/22 10:54:56;;;;;;;2.55;1.00;;;;;;;;;;7389676;19;20006;-76
2022/08/22 10:57:35;;;;;;;2.78;0.70;;;;;;;;;;7392006;19;20427;-77
2022/08/22 11:00:08;;;;;;;2.67;0.90;;;;;;;;;;7392272;19;20002;-76
2022/08/22 11:03:14;;;;;;;1.15;0.90;;;;;;;;;;7398746;19;20090;-75
2022/08/22 11:05:44;;;;;;;;;;;;;;;;;;7392153;19;20338;-77
2022/08/22 11:08:20;;;;;;;2.53;1.00;;;;;;;;;;7401546;19;19921;-76
2022/08/22 11:10:47;;;;;;;0.82;0.80;;;;;;;;;;7399694;19;20078;-77
2022/08/22 11:13:31;;;;;;;1.58;0.80;;;;;;;;;;7400260;19;20003;-77
2022/08/22 11:16:17;;;;;;;1.67;0.95;;;;;;;;;;7398544;19;20088;-77
2022/08/22 11:18:46;;;;;;;1.73;1.00;;;;;;;;;;7399270;19;20058;-77
2022/08/22 11:21:31;;;;;;;2.17;0.80;;;;;;;;;;7399383;19;20007;-77
2022/08/22 11:24:22;;;;;;;1.27;0.88;;;;;;;;;;7398243;19;20006;-77
2022/08/22 11:26:54;;;;;;;2.17;0.85;;;;;;;;;;7399024;19;20071;-78
2022/08/22 11:29:44;;;;;;;0.77;0.60;;;;;;;;;;7400882;19;20020;-77
2022/08/22 11:32:27;;;;;;;1.23;0.68;;;;;;;;;;7398896;19;20010;-78
2022/08/22 11:34:58;;;;;;;3.40;0.93;;;;;;;;;;7399917;19;20066;-77
2022/08/22 11:37:58;;;;;;;3.40;1.05;;;;;;;;;;7399458;19;19994;-77
2022/08/22 11:40:31;;;;;;;1.73;0.90;;;;;;;;;;7397821;19;20468;-77
2022/08/22 11:42:56;;;;;;;1.83;0.65;;;;;;;;;;7399650;19;19998;-76
2022/08/22 11:45:28;;;;;;;2.13;0.80;;;;;;;;;;7393743;19;20010;-78
2022/08/22 11:48:20;;;;;;;0.95;0.70;;;;;;;;;;7394070;19;20031;-77
2022/08/22 11:51:12;;;;;;;2.53;0.88;;;;;;;;;;7397035;19;20027;-77
2022/08/22 11:53:44;;;;;;;1.20;0.70;;;;;;;;;;7399328;19;19998;-77
2022/08/22 11:56:09;;;;;;;2.03;0.60;;;;;;;;;;7393850;19;20007;-77
2022/08/22 11:58:59;;;;;;;2.05;0.90;;;;;;;;;;7398859;19;20071;-77
2022/08/22 12:01:54;;;;;;;1.92;0.82;;;;;;;;;;7397822;19;20006;-76
2022/08/22 12:04:30;;;;;;;0.70;0.70;;;;;;;;;;7396311;19;20014;-77
2022/08/22 12:07:14;;;;;;;2.10;0.90;;;;;;;;;;7397664;19;20025;-77
2022/08/22 12:09:56;;;;;;;1.65;0.77;;;;;;;;;;7400090;19;20006;-78
2022/08/22 12:12:48;;;;;;;3.08;1.00;;;;;;;;;;7400365;19;20007;-77
2022/08/22 12:15:28;;;;;;;2.97;0.90;;;;;;;;;;7401557;19;20015;-77
2022/08/22 12:18:21;;;;;;;1.58;0.70;;;;;;;;;;7400506;19;20009;-78
2022/08/22 12:21:15;;;;;;;1.95;0.80;;;;;;;;;;7396587;19;20438;-77
2022/08/22 12:24:17;;;;;;;2.03;0.80;;;;;;;;;;7398870;19;20121;-78
2022/08/22 12:26:52;;;;;;;0.70;0.70;;;;;;;;;;7396121;19;20331;-77
2022/08/22 12:29:31;;;;;;;0.75;0.40;;;;;;;;;;7397682;19;20026;-76
2022/08/22 12:32:05;;;;;;;3.85;0.90;;;;;;;;;;7399398;19;20034;-78
2022/08/22 12:34:59;;;;;;;3.47;1.02;;;;;;;;;;7397136;19;20002;-76
2022/08/22 12:37:36;;;;;;;1.63;0.80;;;;;;;;;;7396022;19;20017;-78
2022/08/22 12:40:29;;;;;;;1.40;0.70;;;;;;;;;;7399432;19;20017;-77
2022/08/22 12:43:25;;;;;;;1.35;0.70;;;;;;;;;;7396292;19;20003;-78
2022/08/22 12:46:21;;;;;;;1.80;0.68;;;;;;;;;;7398557;19;20010;-78
2022/08/22 12:49:05;;;;;;;1.63;0.65;;;;;;;;;;7398861;19;20039;-78
2022/08/22 12:51:51;;;;;;;1.42;0.90;;;;;;;;;;7397049;19;20018;-77
2022/08/22 12:54:44;;;;;;;0.70;0.63;;;;;;;;;;7399317;19;20030;-77
2022/08/22 12:57:28;;;;;;;2.78;0.80;;;;;;;;;;7394508;19;20003;-77
2022/08/22 13:00:01;;;;;;;2.15;1.23;;;;;;;;;;7395071;19;20375;-77
2022/08/22 13:02:31;;;;;;;1.67;0.88;;;;;;;;;;7395039;19;20363;-78
2022/08/22 13:05:00;;;;;;;3.28;0.80;;;;;;;;;;7396249;19;20074;-78
2022/08/22 13:07:29;;;;;;;0.70;0.70;;;;;;;;;;7396272;19;19998;-77
2022/08/22 13:10:00;;;;;;;1.23;0.70;;;;;;;;;;7397715;19;20006;-77
2022/08/22 13:12:38;;;;;;;1.88;0.80;;;;;;;;;;7397337;19;20002;-77
2022/08/22 13:15:27;;;;;;;2.53;0.77;;;;;;;;;;7396960;19;20018;-77
2022/08/22 13:17:54;;;;;;;1.52;1.02;;;;;;;;;;7396092;19;20013;-79
2022/08/22 13:20:25;;;;;;;1.08;0.60;;;;;;;;;;7397886;19;20016;-78
2022/08/22 13:22:52;;;;;;;0.80;0.80;;;;;;;;;;7393268;19;20006;-79
2022/08/22 13:25:20;;;;;;;2.15;0.90;;;;;;;;;;7396787;19;20006;-79
2022/08/22 13:28:02;;;;;;;1.10;0.73;;;;;;;;;;7395013;19;20018;-79
2022/08/22 13:30:33;;;;;;;1.20;0.77;;;;;;;;;;7398364;19;20007;-77
2022/08/22 13:33:08;;;;;;;0.60;0.60;;;;;;;;;;7399429;19;19998;-79
2022/08/22 13:36:00;;;;;;;2.28;1.45;;;;;;;;;;7395869;19;20014;-78
2022/08/22 13:38:30;;;;;;;3.97;1.00;;;;;;;;;;7396565;19;20045;-78
2022/08/22 13:40:57;;;;;;;1.75;0.90;;;;;;;;;;7399890;19;20025;-79
2022/08/22 13:43:28;;;;;;;2.03;1.00;;;;;;;;;;7396881;19;20004;-77
2022/08/22 13:46:02;;;;;;;5.63;0.95;;;;;;;;;;7392505;19;20010;-78
2022/08/22 13:48:49;;;;;;;0.75;0.50;;;;;;;;;;7393830;19;20350;-79
2022/08/22 13:51:39;;;;;;;1.50;0.60;;;;;;;;;;7395919;19;20106;-79
2022/08/22 13:54:10;;;;;;;3.40;0.80;;;;;;;;;;7399756;19;20014;-77
2022/08/22 13:56:54;;;;;;;0.63;0.55;;;;;;;;;;7396710;19;20410;-79
2022/08/22 13:59:50;;;;;;;1.77;0.95;;;;;;;;;;7395416;19;20006;-79
2022/08/22 14:02:23;;;;;;;1.00;0.73;;;;;;;;;;7393748;19;20355;-79
2022/08/22 14:04:52;;;;;;;1.75;0.98;;;;;;;;;;7396218;19;20374;-78
2022/08/22 14:07:39;;;;;;;1.80;0.90;;;;;;;;;;7396561;19;19995;-79
2022/08/22 14:10:04;;;;;;;1.42;0.75;;;;;;;;;;7397661;19;20012;-79
2022/08/22 14:12:32;;;;;;;1.73;0.70;;;;;;;;;;7396539;19;20085;-78
2022/08/22 14:15:00;;;;;;;1.88;0.70;;;;;;;;;;7395932;19;20010;-81
2022/08/22 14:17:41;;;;;;;2.72;1.10;;;;;;;;;;7394322;19;20003;-75
2022/08/22 14:20:16;;;;;;;5.65;0.90;;;;;;;;;;7394241;19;20027;-78
2022/08/22 14:22:58;;;;;;;0.88;0.70;;;;;;;;;;7392373;19;20111;-78
2022/08/22 14:25:26;;;;;;;1.38;0.75;;;;;;;;;;7386451;19;20031;-78
2022/08/22 14:28:00;;;;;;;1.13;0.80;;;;;;;;;;7390418;19;20021;-78
2022/08/22 14:31:01;;;;;;;1.13;0.80;;;;;;;;;;7392183;19;20021;-78
2022/08/22 14:33:37;;;;;;;0.57;0.50;;;;;;;;;;7392756;19;20007;-78
2022/08/22 14:36:12;;;;;;;0.88;0.80;;;;;;;;;;7397428;19;19999;-78
2022/08/22 14:38:42;;;;;;;0.93;0.80;;;;;;;;;;7397938;19;20035;-79
2022/08/22 14:41:23;;;;;;;1.00;0.70;;;;;;;;;;7398242;19;20021;-79
2022/08/22 14:43:58;;;;;;;1.65;0.98;;;;;;;;;;7401148;19;20078;-78
2022/08/22 14:46:36;;;;;;;1.90;0.80;;;;;;;;;;7399284;19;20093;-78
2022/08/22 14:49:17;;;;;;;1.20;0.77;;;;;;;;;;7402900;19;20006;-77
2022/08/22 14:51:48;;;;;;;0.80;0.70;;;;;;;;;;7397941;19;20066;-78
2022/08/22 14:54:17;;;;;;;0.82;0.70;;;;;;;;;;7398657;19;20007;-77
2022/08/22 14:56:44;;;;;;;4.38;1.00;;;;;;;;;;7399254;19;20437;-78
2022/08/22 14:59:27;;;;;;;1.25;0.93;;;;;;;;;;7400652;19;20026;-77
2022/08/22 15:02:12;;;;;;;1.20;0.80;;;;;;;;;;7394749;19;20014;-77
2022/08/22 15:04:46;;;;;;;1.95;0.82;;;;;;;;;;7395121;19;20319;-78
2022/08/22 15:07:22;;;;;;;1.27;0.85;;;;;;;;;;7397024;19;19998;-77
2022/08/22 15:09:53;;;;;;;2.85;0.90;;;;;;;;;;7396200;19;20092;-77
2022/08/22 15:12:32;;;;;;;1.45;0.80;;;;;;;;;;7393830;19;20079;-77
2022/08/22 15:15:00;;;;;;;3.08;0.90;;;;;;;;;;7396940;19;20016;-77
2022/08/22 15:17:52;;;;;;;1.67;0.82;;;;;;;;;;7394170;19;20131;-77
2022/08/22 15:20:27;;;;;;;1.15;0.75;;;;;;;;;;7395365;19;20334;-77
2022/08/22 15:22:54;;;;;;;0.93;0.60;;;;;;;;;;7394721;19;20010;-77
2022/08/22 15:25:41;;;;;;;1.02;0.82;;;;;;;;;;7394737;19;20039;-77
2022/08/22 15:28:11;;;;;;;0.70;0.70;;;;;;;;;;7396355;19;20025;-77
2022/08/22 15:30:57;;;;;;;0.57;0.50;;;;;;;;;;7397243;19;20002;-77
2022/08/22 15:33:29;;;;;;;0.77;0.50;;;;;;;;;;7392590;19;19998;-77
2022/08/22 15:36:18;;;;;;;1.95;1.27;;;;;;;;;;7395491;19;20405;-77
2022/08/22 15:38:50;;;;;;;2.15;1.50;;;;;;;;;;7391534;19;20017;-77
2022/08/22 15:41:48;;;;;;;1.00;0.90;;;;;;;;;;7399217;19;20006;-77
2022/08/22 15:44:19;;;;;;;0.93;0.63;;;;;;;;;;7395282;19;19998;-77
2022/08/22 15:46:50;;;;;;;3.80;0.90;;;;;;;;;;7392020;19;20018;-77
2022/08/22 15:49:18;;;;;;;0.95;0.65;;;;;;;;;;7396454;19;20422;-77
2022/08/22 15:51:57;;;;;;;1.25;0.85;;;;;;;;;;7399645;19;20091;-75
2022/08/22 15:54:46;;;;;;;1.17;0.73;;;;;;;;;;7395469;19;19998;-75
2022/08/22 15:57:22;;;;;;;0.95;0.60;;;;;;;;;;7389297;19;20014;-75
2022/08/22 15:59:50;;;;;;;1.88;0.70;;;;;;;;;;7396647;19;20003;-75
2022/08/22 16:02:24;;;;;;;0.75;0.63;;;;;;;;;;7394180;19;20005;-76
2022/08/22 16:05:10;;;;;;;1.20;0.75;;;;;;;;;;7393929;19;20014;-76
2022/08/22 16:07:42;;;;;;;1.42;0.80;;;;;;;;;;7391786;19;20098;-76
2022/08/22 16:10:22;;;;;;;1.35;0.70;;;;;;;;;;7397272;19;20007;-76
2022/08/22 16:13:11;;;;;;;3.20;0.70;;;;;;;;;;7394543;19;20015;-76
2022/08/22 16:15:45;;;;;;;1.58;0.60;;;;;;;;;;7394365;19;20459;-76
2022/08/22 16:18:33;;;;;;;1.02;0.60;;;;;;;;;;7395121;19;20108;-76